createdAt,value
2023-05-27T00:02:40.143Z,5.45
2023-05-27T00:05:25.931Z,4.90
2023-05-27T00:08:11.734Z,5.15
2023-05-27T00:10:57.625Z,5.95
2023-05-27T00:13:43.629Z,5.07
2023-05-27T00:16:29.698Z,5.72
2023-05-27T00:19:15.510Z,5.50
2023-05-27T00:22:01.445Z,6.40
2023-05-27T00:24:47.276Z,6.50
2023-05-27T00:27:33.121Z,6.18
2023-05-27T00:30:19.128Z,6.03
2023-05-27T00:33:04.976Z,6.10
2023-05-27T00:35:50.853Z,5.88
2023-05-27T00:38:37.333Z,6.82
2023-05-27T00:41:24.162Z,6.15
2023-05-27T00:44:09.637Z,6.47
2023-05-27T00:46:55.632Z,6.07
2023-05-27T00:49:41.553Z,6.07
2023-05-27T00:52:27.404Z,5.97
2023-05-27T00:55:13.256Z,6.47
2023-05-27T00:57:59.058Z,6.35
2023-05-27T01:00:45.089Z,5.53
2023-05-27T01:03:33.881Z,5.43
2023-05-27T01:06:38.678Z,5.45
2023-05-27T01:09:24.746Z,5.55
2023-05-27T01:12:13.913Z,5.07
2023-05-27T01:15:00.262Z,6.05
2023-05-27T01:17:47.394Z,6.45
2023-05-27T01:20:34.608Z,6.10
2023-05-27T01:23:20.896Z,5.78
2023-05-27T01:26:06.924Z,5.97
2023-05-27T01:28:53.116Z,5.88
2023-05-27T01:31:51.891Z,5.30
2023-05-27T01:34:43.455Z,5.68
2023-05-27T01:37:34.867Z,5.88
2023-05-27T01:40:21.418Z,6.00
2023-05-27T01:43:08.170Z,6.03
2023-05-27T01:45:54.030Z,6.13
2023-05-27T01:48:40.361Z,5.88
2023-05-27T01:51:27.706Z,5.85
2023-05-27T01:54:13.458Z,10.75
2023-05-27T01:56:59.301Z,10.05
2023-05-27T01:59:45.145Z,7.72
2023-05-27T02:02:32.518Z,6.50
2023-05-27T02:05:18.445Z,6.20
2023-05-27T02:08:04.330Z,5.60
2023-05-27T02:10:50.370Z,5.70
2023-05-27T02:13:37.630Z,6.53
2023-05-27T02:16:24.022Z,5.30
2023-05-27T02:19:10.091Z,5.95
2023-05-27T02:21:56.020Z,6.45
2023-05-27T02:24:41.930Z,5.95
2023-05-27T02:27:27.710Z,5.80
2023-05-27T02:30:14.881Z,6.30
2023-05-27T02:33:00.847Z,5.45
2023-05-27T02:35:47.440Z,6.50
2023-05-27T02:38:33.707Z,5.80
2023-05-27T02:41:19.865Z,5.03
2023-05-27T02:44:06.769Z,5.40
2023-05-27T02:46:52.644Z,5.50
2023-05-27T02:49:38.717Z,5.10
2023-05-27T02:52:24.608Z,4.88
2023-05-27T02:55:10.691Z,4.93
2023-05-27T02:57:56.546Z,5.60
2023-05-27T03:00:42.338Z,5.68
2023-05-27T03:03:28.181Z,5.32
2023-05-27T03:06:13.977Z,5.70
2023-05-27T03:09:02.071Z,5.22
2023-05-27T03:11:47.873Z,5.75
2023-05-27T03:14:34.335Z,5.05
2023-05-27T03:17:21.430Z,5.43
2023-05-27T03:20:08.975Z,5.57
2023-05-27T03:22:56.090Z,4.90
2023-05-27T03:25:42.355Z,4.80
2023-05-27T03:28:28.053Z,5.20
2023-05-27T03:31:14.830Z,5.85
2023-05-27T03:34:10.076Z,5.45
2023-05-27T03:36:59.927Z,4.97
2023-05-27T03:40:02.165Z,4.75
2023-05-27T03:42:51.702Z,5.35
2023-05-27T03:45:41.306Z,5.57
2023-05-27T03:48:27.017Z,5.95
2023-05-27T03:51:12.934Z,6.20
2023-05-27T03:53:58.863Z,6.22
2023-05-27T03:56:44.713Z,4.88
2023-05-27T03:59:32.197Z,5.05
2023-05-27T04:02:19.109Z,5.00
2023-05-27T04:05:05.099Z,4.43
2023-05-27T04:07:52.786Z,5.18
2023-05-27T04:10:38.583Z,5.93
2023-05-27T04:13:24.450Z,6.07
2023-05-27T04:16:11.492Z,6.18
2023-05-27T04:18:57.714Z,5.45
2023-05-27T04:21:44.463Z,5.10
2023-05-27T04:24:30.396Z,5.68
2023-05-27T04:27:20.136Z,5.70
2023-05-27T04:30:09.972Z,6.03
2023-05-27T04:32:56.008Z,6.30
2023-05-27T04:35:44.706Z,6.22
2023-05-27T04:38:32.398Z,5.38
2023-05-27T04:41:28.208Z,6.07
2023-05-27T04:44:31.504Z,5.63
2023-05-27T04:47:19.257Z,5.47
2023-05-27T04:50:05.801Z,5.75
2023-05-27T04:52:52.312Z,5.38
2023-05-27T04:55:39.833Z,5.20
2023-05-27T04:58:26.837Z,5.70
2023-05-27T05:01:18.213Z,5.78
2023-05-27T05:04:13.576Z,5.78
2023-05-27T05:07:06.744Z,5.35
2023-05-27T05:09:54.553Z,5.70
2023-05-27T05:12:47.648Z,5.15
2023-05-27T05:15:33.940Z,5.22
2023-05-27T05:18:19.718Z,5.32
2023-05-27T05:21:05.770Z,5.60
2023-05-27T05:23:58.783Z,6.03
2023-05-27T05:26:45.401Z,6.03
2023-05-27T05:29:31.358Z,5.07
2023-05-27T05:32:17.708Z,5.50
2023-05-27T05:35:04.425Z,6.05
2023-05-27T05:37:51.422Z,5.82
2023-05-27T05:40:37.914Z,6.70
2023-05-27T05:43:42.546Z,6.03
2023-05-27T05:46:28.873Z,6.20
2023-05-27T05:49:14.643Z,5.70
2023-05-27T05:52:03.551Z,5.85
2023-05-27T05:54:50.417Z,6.00
2023-05-27T05:57:36.757Z,5.55
2023-05-27T06:00:25.093Z,6.03
2023-05-27T06:03:18.329Z,5.68
2023-05-27T06:06:09.792Z,5.85
2023-05-27T06:09:12.260Z,5.63
2023-05-27T06:11:58.014Z,5.63
2023-05-27T06:14:44.516Z,6.18
2023-05-27T06:17:36.735Z,5.95
2023-05-27T06:20:23.809Z,6.03
2023-05-27T06:23:09.769Z,6.53
2023-05-27T06:26:01.651Z,6.30
2023-05-27T06:28:50.983Z,6.45
2023-05-27T06:31:37.329Z,6.10
2023-05-27T06:34:23.601Z,5.57
2023-05-27T06:37:09.554Z,6.70
2023-05-27T06:39:55.564Z,5.95
2023-05-27T06:42:41.331Z,6.32
2023-05-27T06:46:02.593Z,6.10
2023-05-27T06:49:25.795Z,6.10
2023-05-27T06:52:14.812Z,5.93
2023-05-27T06:55:28.867Z,6.40
2023-05-27T06:58:35.799Z,6.82
2023-05-27T07:01:26.622Z,6.50
2023-05-27T07:04:17.568Z,6.10
2023-05-27T07:07:08.892Z,6.80
2023-05-27T07:09:55.212Z,6.13
2023-05-27T07:12:41.738Z,6.32
2023-05-27T07:15:42.928Z,6.15
2023-05-27T07:18:28.823Z,7.43
2023-05-27T07:21:18.227Z,9.85
2023-05-27T07:24:04.528Z,7.85
2023-05-27T07:26:55.881Z,9.85
2023-05-27T07:29:43.300Z,7.20
2023-05-27T07:32:55.642Z,6.28
2023-05-27T07:35:41.669Z,7.47
2023-05-27T07:38:27.740Z,6.80
2023-05-27T07:41:14.276Z,14.00
2023-05-27T07:44:01.544Z,6.35
2023-05-27T07:46:47.480Z,10.52
2023-05-27T07:49:33.405Z,11.50
2023-05-27T07:52:57.732Z,8.27
2023-05-27T07:55:46.011Z,15.30
2023-05-27T07:58:31.782Z,6.90
2023-05-27T08:01:26.070Z,7.43
2023-05-27T08:04:24.266Z,16.10
2023-05-27T08:07:30.180Z,10.55
2023-05-27T08:10:29.726Z,5.45
2023-05-27T08:13:26.872Z,4.78
2023-05-27T08:16:33.162Z,5.65
2023-05-27T08:19:42.595Z,5.40
2023-05-27T08:22:36.500Z,5.10
2023-05-27T08:25:38.115Z,5.07
2023-05-27T08:28:26.867Z,4.38
2023-05-27T08:31:20.637Z,4.82
2023-05-27T08:34:11.625Z,3.70
2023-05-27T08:36:57.475Z,4.03
2023-05-27T08:39:45.613Z,3.72
2023-05-27T08:42:49.852Z,3.85
2023-05-27T08:45:36.212Z,4.38
2023-05-27T08:48:22.787Z,4.13
2023-05-27T08:51:09.084Z,3.83
2023-05-27T08:53:56.846Z,3.60
2023-05-27T08:56:45.005Z,3.72
2023-05-27T08:59:32.527Z,3.90
2023-05-27T09:02:20.019Z,3.88
2023-05-27T09:05:06.901Z,3.88
2023-05-27T09:07:53.073Z,4.28
2023-05-27T09:10:39.696Z,3.70
2023-05-27T09:13:29.401Z,3.60
2023-05-27T09:16:15.787Z,4.22
2023-05-27T09:19:01.761Z,4.20
2023-05-27T09:21:47.501Z,3.38
2023-05-27T09:24:33.394Z,3.45
2023-05-27T09:27:19.154Z,3.95
2023-05-27T09:30:08.914Z,3.40
2023-05-27T09:33:03.478Z,3.60
2023-05-27T09:35:50.345Z,4.03
2023-05-27T09:38:37.128Z,3.40
2023-05-27T09:41:27.871Z,4.25
2023-05-27T09:44:13.769Z,3.72
2023-05-27T09:47:00.449Z,3.70
2023-05-27T09:52:36.957Z,3.50
2023-05-27T09:55:31.162Z,3.38
2023-05-27T09:58:17.068Z,4.03
2023-05-27T10:01:03.695Z,3.50
2023-05-27T10:03:50.487Z,3.80
2023-05-27T10:06:37.877Z,3.75
2023-05-27T10:09:24.136Z,4.22
2023-05-27T10:12:10.255Z,4.13
2023-05-27T10:14:57.379Z,6.47
2023-05-27T10:17:50.105Z,4.22
2023-05-27T10:20:40.281Z,5.13
2023-05-27T10:23:30.214Z,4.07
2023-05-27T10:26:16.414Z,4.30
2023-05-27T10:29:09.449Z,3.88
2023-05-27T10:31:55.855Z,4.32
2023-05-27T10:34:47.793Z,4.30
2023-05-27T10:37:35.882Z,4.10
2023-05-27T10:40:28.227Z,4.53
2023-05-27T10:43:18.113Z,3.90
2023-05-27T10:46:05.449Z,4.07
2023-05-27T10:48:51.756Z,3.95
2023-05-27T10:51:38.246Z,4.32
2023-05-27T10:54:29.496Z,3.63
2023-05-27T10:57:16.029Z,3.63
2023-05-27T11:00:10.310Z,4.18
2023-05-27T11:02:56.623Z,4.15
2023-05-27T11:05:42.344Z,4.00
2023-05-27T11:08:28.253Z,3.53
2023-05-27T11:11:14.871Z,3.63
2023-05-27T11:14:01.240Z,3.78
2023-05-27T11:16:49.374Z,4.32
2023-05-27T11:19:35.461Z,3.90
2023-05-27T11:22:21.337Z,3.78
2023-05-27T11:25:07.597Z,3.90
2023-05-27T11:27:54.035Z,3.75
2023-05-27T11:30:40.140Z,3.85
2023-05-27T11:33:37.453Z,3.80
2023-05-27T11:36:26.919Z,3.67
2023-05-27T11:39:17.785Z,3.75
2023-05-27T11:42:07.428Z,4.22
2023-05-27T11:44:57.716Z,3.95
2023-05-27T11:47:44.330Z,4.40
2023-05-27T11:50:30.434Z,4.13
2023-05-27T11:53:17.059Z,4.25
2023-05-27T11:56:02.860Z,4.88
2023-05-27T11:58:48.624Z,4.32
2023-05-27T12:01:34.509Z,4.15
2023-05-27T12:04:20.162Z,4.35
2023-05-27T12:07:12.424Z,4.47
2023-05-27T12:10:05.315Z,4.20
2023-05-27T12:12:51.183Z,4.35
2023-05-27T12:15:37.136Z,4.63
2023-05-27T12:18:22.865Z,4.07
2023-05-27T12:21:08.987Z,4.45
2023-05-27T12:23:55.055Z,4.13
2023-05-27T12:26:41.932Z,4.60
2023-05-27T12:29:28.267Z,4.22
2023-05-27T12:32:13.859Z,4.28
2023-05-27T12:35:00.032Z,4.03
2023-05-27T12:37:46.094Z,4.25
2023-05-27T12:40:32.001Z,4.40
2023-05-27T12:43:18.942Z,4.05
2023-05-27T12:46:05.575Z,3.35
2023-05-27T12:48:51.663Z,3.80
2023-05-27T12:51:38.683Z,4.53
2023-05-27T12:54:24.699Z,3.90
2023-05-27T12:57:10.755Z,4.22
2023-05-27T12:59:56.558Z,3.50
2023-05-27T13:02:43.896Z,3.67
2023-05-27T13:05:29.835Z,3.33
2023-05-27T13:08:15.729Z,3.80
2023-05-27T13:11:01.722Z,3.55
2023-05-27T13:13:47.485Z,4.05
2023-05-27T13:16:33.390Z,3.33
2023-05-27T13:19:19.258Z,3.45
2023-05-27T13:22:05.161Z,3.67
2023-05-27T13:24:51.215Z,4.00
2023-05-27T13:27:36.966Z,4.40
2023-05-27T13:30:23.197Z,4.03
2023-05-27T13:33:09.505Z,3.58
2023-05-27T13:35:55.583Z,3.45
2023-05-27T13:38:41.307Z,3.90
2023-05-27T13:41:27.984Z,3.53
2023-05-27T13:44:14.061Z,3.95
2023-05-27T13:47:00.295Z,3.30
2023-05-27T13:49:46.001Z,3.50
2023-05-27T13:52:31.807Z,3.35
2023-05-27T13:55:17.630Z,2.85
2023-05-27T13:58:03.761Z,3.35
2023-05-27T14:00:49.362Z,2.75
2023-05-27T14:03:35.142Z,3.63
2023-05-27T14:06:21.075Z,3.30
2023-05-27T14:09:06.901Z,3.60
2023-05-27T14:11:52.600Z,3.85
2023-05-27T14:14:38.476Z,3.50
2023-05-27T14:17:24.247Z,3.08
2023-05-27T14:20:12.068Z,3.08
2023-05-27T14:23:03.316Z,3.40
2023-05-27T14:25:49.070Z,3.08
2023-05-27T14:28:34.809Z,3.70
2023-05-27T14:31:20.776Z,3.40
2023-05-27T14:34:06.678Z,3.20
2023-05-27T14:36:52.515Z,3.25
2023-05-27T14:39:38.387Z,3.25
2023-05-27T14:42:24.054Z,3.47
2023-05-27T14:45:10.060Z,3.50
2023-05-27T14:47:56.076Z,3.65
2023-05-27T14:50:42.308Z,3.92
2023-05-27T14:53:28.491Z,3.42
2023-05-27T14:56:14.684Z,3.45
2023-05-27T14:59:00.541Z,3.70
2023-05-27T15:01:46.460Z,3.70
2023-05-27T15:04:32.204Z,3.50
2023-05-27T15:07:19.678Z,4.00
2023-05-27T15:10:06.717Z,3.60
2023-05-27T15:12:52.574Z,3.60
2023-05-27T15:15:40.602Z,3.70
2023-05-27T15:18:26.863Z,16.00
2023-05-27T15:21:13.132Z,6.70
2023-05-27T15:23:59.933Z,3.97
2023-05-27T15:26:46.348Z,3.63
2023-05-27T15:29:31.926Z,3.58
2023-05-27T15:32:17.937Z,3.88
2023-05-27T15:35:04.811Z,3.67
2023-05-27T15:37:50.913Z,4.00
2023-05-27T15:40:39.166Z,3.70
2023-05-27T15:43:24.704Z,3.90
2023-05-27T15:46:11.065Z,4.00
2023-05-27T15:48:57.041Z,3.67
2023-05-27T15:51:44.141Z,3.60
2023-05-27T15:54:29.861Z,3.83
2023-05-27T15:57:15.671Z,3.20
2023-05-27T16:00:01.606Z,3.47
2023-05-27T16:02:57.771Z,3.65
2023-05-27T16:05:44.657Z,3.70
2023-05-27T16:08:31.137Z,3.92
2023-05-27T16:11:17.142Z,3.28
2023-05-27T16:14:02.934Z,4.05
2023-05-27T16:16:49.709Z,3.75
2023-05-27T16:19:36.020Z,3.45
2023-05-27T16:22:21.737Z,3.58
2023-05-27T16:25:08.063Z,3.30
2023-05-27T16:27:53.509Z,3.90
2023-05-27T16:30:39.231Z,3.40
2023-05-27T16:33:25.557Z,3.60
2023-05-27T16:36:11.291Z,3.90
2023-05-27T16:38:57.301Z,3.83
2023-05-27T16:41:43.111Z,3.67
2023-05-27T16:44:29.043Z,3.65
2023-05-27T16:47:14.857Z,3.53
2023-05-27T16:50:00.932Z,4.78
2023-05-27T16:52:46.711Z,4.13
2023-05-27T16:55:32.476Z,4.00
2023-05-27T16:58:19.103Z,3.70
2023-05-27T17:01:05.450Z,3.92
2023-05-27T17:03:51.302Z,4.03
2023-05-27T17:06:37.203Z,3.53
2023-05-27T17:09:23.076Z,3.78
2023-05-27T17:12:10.683Z,3.92
2023-05-27T17:14:56.958Z,3.75
2023-05-27T17:17:42.909Z,3.67
2023-05-27T17:20:28.656Z,3.90
2023-05-27T17:23:14.642Z,3.47
2023-05-27T17:26:00.534Z,3.53
2023-05-27T17:28:46.991Z,3.92
2023-05-27T17:31:32.957Z,3.95
2023-05-27T17:34:18.892Z,3.50
2023-05-27T17:37:04.801Z,3.22
2023-05-27T17:39:50.725Z,3.63
2023-05-27T17:42:36.958Z,3.42
2023-05-27T17:45:23.152Z,3.75
2023-05-27T17:48:11.773Z,3.25
2023-05-27T17:50:58.003Z,3.50
2023-05-27T17:53:44.218Z,3.58
2023-05-27T17:56:30.398Z,3.58
2023-05-27T17:59:16.036Z,4.05
2023-05-27T18:02:02.058Z,3.63
2023-05-27T18:04:47.932Z,3.50
2023-05-27T18:07:33.716Z,3.53
2023-05-27T18:10:22.274Z,4.10
2023-05-27T18:13:08.154Z,3.85
2023-05-27T18:15:54.258Z,3.85
2023-05-27T18:18:40.407Z,3.10
2023-05-27T18:21:26.332Z,3.50
2023-05-27T18:24:13.476Z,4.18
2023-05-27T18:26:59.080Z,3.83
2023-05-27T18:29:44.987Z,3.60
2023-05-27T18:32:43.224Z,4.10
2023-05-27T18:35:32.175Z,3.67
2023-05-27T18:38:18.479Z,3.97
2023-05-27T18:41:04.310Z,3.53
2023-05-27T18:43:50.337Z,3.70
2023-05-27T18:46:37.342Z,3.63
2023-05-27T18:49:24.496Z,3.25
2023-05-27T18:52:10.653Z,3.63
2023-05-27T18:54:56.337Z,3.60
2023-05-27T18:57:42.156Z,4.15
2023-05-27T19:00:27.830Z,3.78
2023-05-27T19:03:15.823Z,3.33
2023-05-27T19:06:01.888Z,3.60
2023-05-27T19:08:47.952Z,3.97
2023-05-27T19:11:33.736Z,4.03
2023-05-27T19:14:19.620Z,3.92
2023-05-27T19:17:05.526Z,3.65
2023-05-27T19:19:51.572Z,3.72
2023-05-27T19:22:37.747Z,3.50
2023-05-27T19:25:23.862Z,3.60
2023-05-27T19:28:09.790Z,3.65
2023-05-27T19:30:55.540Z,3.97
2023-05-27T19:33:41.372Z,3.20
2023-05-27T19:36:28.365Z,3.55
2023-05-27T19:39:14.168Z,3.33
2023-05-27T19:42:00.116Z,3.28
2023-05-27T19:44:47.537Z,4.00
2023-05-27T19:47:33.341Z,3.50
2023-05-27T19:50:19.672Z,4.50
2023-05-27T19:53:05.498Z,4.47
2023-05-27T19:55:51.362Z,4.57
2023-05-27T19:58:37.307Z,4.05
2023-05-27T20:01:23.195Z,5.13
2023-05-27T20:04:09.061Z,4.22
2023-05-27T20:06:54.905Z,4.15
2023-05-27T20:09:40.802Z,3.60
2023-05-27T20:12:42.997Z,4.10
2023-05-27T20:15:28.972Z,4.15
2023-05-27T20:18:14.744Z,4.38
2023-05-27T20:21:00.606Z,4.22
2023-05-27T20:23:46.432Z,4.40
2023-05-27T20:26:32.479Z,4.80
2023-05-27T20:29:18.353Z,4.70
2023-05-27T20:32:04.196Z,4.55
2023-05-27T20:34:50.321Z,5.28
2023-05-27T20:37:36.235Z,4.70
2023-05-27T20:40:22.319Z,4.30
2023-05-27T20:43:07.828Z,5.00
2023-05-27T20:45:53.677Z,4.70
2023-05-27T20:48:39.564Z,4.97
2023-05-27T20:51:26.731Z,12.43
2023-05-27T20:54:12.730Z,4.85
2023-05-27T20:56:58.757Z,5.30
2023-05-27T20:59:44.663Z,5.10
2023-05-27T21:02:30.957Z,4.75
2023-05-27T21:05:17.167Z,5.63
2023-05-27T21:08:02.933Z,5.25
2023-05-27T21:10:49.286Z,4.80
2023-05-27T21:13:35.417Z,5.10
2023-05-27T21:16:21.455Z,5.13
2023-05-27T21:19:07.229Z,5.15
2023-05-27T21:21:53.098Z,4.90
2023-05-27T21:24:39.023Z,4.97
2023-05-27T21:27:25.434Z,5.03
2023-05-27T21:30:12.209Z,4.45
2023-05-27T21:32:57.880Z,4.68
2023-05-27T21:35:43.978Z,4.68
2023-05-27T21:38:34.034Z,5.72
2023-05-27T21:41:19.999Z,5.88
2023-05-27T21:44:06.031Z,6.22
2023-05-27T21:46:51.930Z,5.50
2023-05-27T21:49:37.649Z,5.45
2023-05-27T21:52:28.886Z,5.95
2023-05-27T21:55:14.906Z,6.35
2023-05-27T21:58:01.182Z,5.85
2023-05-27T22:00:48.092Z,6.00
2023-05-27T22:03:34.066Z,5.78
2023-05-27T22:06:20.073Z,6.30
2023-05-27T22:09:06.221Z,5.35
2023-05-27T22:11:52.325Z,5.93
2023-05-27T22:14:38.229Z,5.55
2023-05-27T22:17:24.256Z,5.63
2023-05-27T22:20:10.207Z,5.53
2023-05-27T22:22:56.376Z,5.40
2023-05-27T22:25:42.398Z,5.50
2023-05-27T22:28:28.168Z,5.60
2023-05-27T22:31:14.360Z,5.43
2023-05-27T22:34:00.497Z,5.90
2023-05-27T22:36:46.531Z,5.50
2023-05-27T22:39:32.429Z,5.72
2023-05-27T22:42:18.026Z,5.22
2023-05-27T22:45:05.846Z,5.57
2023-05-27T22:47:51.755Z,5.50
2023-05-27T22:50:37.573Z,5.93
2023-05-27T22:53:23.569Z,5.78
2023-05-27T22:56:09.763Z,5.40
2023-05-27T22:58:55.979Z,5.65
2023-05-27T23:01:41.854Z,5.82
2023-05-27T23:04:27.785Z,5.80
2023-05-27T23:07:13.612Z,6.00
2023-05-27T23:09:59.601Z,5.57
2023-05-27T23:12:45.702Z,5.72
2023-05-27T23:15:33.531Z,5.68
2023-05-27T23:18:19.316Z,5.80
2023-05-27T23:21:05.795Z,5.80
2023-05-27T23:23:51.607Z,5.53
2023-05-27T23:26:37.256Z,5.55
2023-05-27T23:29:23.053Z,4.80
2023-05-27T23:32:08.854Z,5.38
2023-05-27T23:34:54.551Z,5.15
2023-05-27T23:37:40.582Z,4.97
2023-05-27T23:40:26.472Z,4.82
2023-05-27T23:43:12.361Z,5.20
2023-05-27T23:45:58.436Z,5.03
2023-05-27T23:48:44.791Z,4.88
2023-05-27T23:51:30.653Z,4.65
2023-05-27T23:54:16.711Z,5.60
2023-05-27T23:57:04.522Z,5.18
